sensor_id;sensor_type;location;lat;lon;timestamp;pressure;altitude;pressure_sealevel;temperature;humidity
78685;BME280;68002;52.310;6.990;2023-11-19T00:01:28;100411.41;;;10.82;100.00
78685;BME280;68002;52.310;6.990;2023-11-19T00:03:53;100405.22;;;10.81;100.00
78685;BME280;68002;52.310;6.990;2023-11-19T00:06:18;100399.03;;;10.81;100.00
78685;BME280;68002;52.310;6.990;2023-11-19T00:08:43;100389.69;;;10.85;100.00
78685;BME280;68002;52.310;6.990;2023-11-19T00:11:08;100384.03;;;10.88;100.00
78685;BME280;68002;52.310;6.990;2023-11-19T00:13:33;100384.03;;;10.88;100.00
78685;BME280;68002;52.310;6.990;2023-11-19T00:15:58;100384.56;;;10.91;100.00
78685;BME280;68002;52.310;6.990;2023-11-19T00:18:23;100380.75;;;10.94;100.00
78685;BME280;68002;52.310;6.990;2023-11-19T00:20:49;100377.13;;;10.95;100.00
78685;BME280;68002;52.310;6.990;2023-11-19T00:23:14;100367.22;;;10.95;100.00
78685;BME280;68002;52.310;6.990;2023-11-19T00:25:39;100368.94;;;10.96;100.00
78685;BME280;68002;52.310;6.990;2023-11-19T00:28:04;100363.94;;;11.01;100.00
78685;BME280;68002;52.310;6.990;2023-11-19T00:30:29;100356.59;;;11.03;100.00
78685;BME280;68002;52.310;6.990;2023-11-19T00:32:54;100352.63;;;11.07;100.00
78685;BME280;68002;52.310;6.990;2023-11-19T00:35:19;100347.97;;;11.09;100.00
78685;BME280;68002;52.310;6.990;2023-11-19T00:37:44;100346.81;;;11.12;100.00
78685;BME280;68002;52.310;6.990;2023-11-19T00:40:10;100358.03;;;11.15;100.00
78685;BME280;68002;52.310;6.990;2023-11-19T00:42:35;100353.22;;;11.19;100.00
78685;BME280;68002;52.310;6.990;2023-11-19T00:45:00;100356.28;;;11.24;100.00
78685;BME280;68002;52.310;6.990;2023-11-19T00:47:25;100366.00;;;11.25;100.00
78685;BME280;68002;52.310;6.990;2023-11-19T00:49:50;100369.88;;;11.31;100.00
78685;BME280;68002;52.310;6.990;2023-11-19T00:52:16;100360.56;;;11.35;100.00
78685;BME280;68002;52.310;6.990;2023-11-19T00:54:41;100346.69;;;11.39;100.00
78685;BME280;68002;52.310;6.990;2023-11-19T00:57:06;100333.97;;;11.41;100.00
78685;BME280;68002;52.310;6.990;2023-11-19T00:59:31;100327.16;;;11.47;100.00
78685;BME280;68002;52.310;6.990;2023-11-19T01:01:56;100324.03;;;11.51;100.00
78685;BME280;68002;52.310;6.990;2023-11-19T01:04:21;100323.41;;;11.57;100.00
78685;BME280;68002;52.310;6.990;2023-11-19T01:06:47;100319.38;;;11.61;100.00
78685;BME280;68002;52.310;6.990;2023-11-19T01:09:12;100308.38;;;11.64;100.00
78685;BME280;68002;52.310;6.990;2023-11-19T01:11:37;100308.06;;;11.67;100.00
78685;BME280;68002;52.310;6.990;2023-11-19T01:14:02;100311.44;;;11.69;100.00
78685;BME280;68002;52.310;6.990;2023-11-19T01:16:27;100295.72;;;11.74;100.00
78685;BME280;68002;52.310;6.990;2023-11-19T01:18:52;100290.69;;;11.79;100.00
78685;BME280;68002;52.310;6.990;2023-11-19T01:21:18;100293.09;;;11.82;100.00
78685;BME280;68002;52.310;6.990;2023-11-19T01:23:43;100295.44;;;11.85;100.00
78685;BME280;68002;52.310;6.990;2023-11-19T01:26:08;100279.06;;;11.88;100.00
78685;BME280;68002;52.310;6.990;2023-11-19T01:28:33;100280.03;;;11.87;100.00
78685;BME280;68002;52.310;6.990;2023-11-19T01:30:58;100285.22;;;11.89;100.00
78685;BME280;68002;52.310;6.990;2023-11-19T01:33:23;100293.94;;;11.91;100.00
78685;BME280;68002;52.310;6.990;2023-11-19T01:35:49;100282.75;;;11.95;100.00
78685;BME280;68002;52.310;6.990;2023-11-19T01:38:14;100300.66;;;11.95;100.00
78685;BME280;68002;52.310;6.990;2023-11-19T01:40:39;100307.88;;;11.94;100.00
78685;BME280;68002;52.310;6.990;2023-11-19T01:43:04;100304.56;;;12.00;100.00
78685;BME280;68002;52.310;6.990;2023-11-19T01:45:29;100301.69;;;12.02;100.00
78685;BME280;68002;52.310;6.990;2023-11-19T01:47:55;100288.31;;;12.02;100.00
78685;BME280;68002;52.310;6.990;2023-11-19T01:50:20;100295.19;;;12.04;100.00
78685;BME280;68002;52.310;6.990;2023-11-19T01:52:46;100290.13;;;12.01;100.00
78685;BME280;68002;52.310;6.990;2023-11-19T01:55:11;100294.50;;;12.02;100.00
78685;BME280;68002;52.310;6.990;2023-11-19T01:57:37;100289.84;;;12.04;100.00
78685;BME280;68002;52.310;6.990;2023-11-19T02:00:02;100298.38;;;12.08;100.00
78685;BME280;68002;52.310;6.990;2023-11-19T02:02:27;100289.16;;;12.10;100.00
78685;BME280;68002;52.310;6.990;2023-11-19T02:04:53;100286.66;;;12.09;100.00
78685;BME280;68002;52.310;6.990;2023-11-19T02:07:18;100277.44;;;12.11;100.00
78685;BME280;68002;52.310;6.990;2023-11-19T02:09:43;100278.13;;;12.13;100.00
78685;BME280;68002;52.310;6.990;2023-11-19T02:12:09;100265.41;;;12.16;100.00
78685;BME280;68002;52.310;6.990;2023-11-19T02:14:35;100281.16;;;12.19;100.00
78685;BME280;68002;52.310;6.990;2023-11-19T02:17:00;100279.50;;;12.18;100.00
78685;BME280;68002;52.310;6.990;2023-11-19T02:19:25;100269.59;;;12.18;100.00
78685;BME280;68002;52.310;6.990;2023-11-19T02:21:50;100276.31;;;12.22;100.00
78685;BME280;68002;52.310;6.990;2023-11-19T02:24:15;100268.94;;;12.24;100.00
78685;BME280;68002;52.310;6.990;2023-11-19T02:29:09;100267.78;;;12.27;100.00
78685;BME280;68002;52.310;6.990;2023-11-19T02:31:34;100260.91;;;12.24;100.00
78685;BME280;68002;52.310;6.990;2023-11-19T02:33:59;100250.00;;;12.26;100.00
78685;BME280;68002;52.310;6.990;2023-11-19T02:36:24;100250.00;;;12.26;100.00
78685;BME280;68002;52.310;6.990;2023-11-19T02:38:49;100250.00;;;12.26;100.00
78685;BME280;68002;52.310;6.990;2023-11-19T02:41:14;100243.78;;;12.25;100.00
78685;BME280;68002;52.310;6.990;2023-11-19T02:43:39;100250.84;;;12.26;100.00
78685;BME280;68002;52.310;6.990;2023-11-19T02:46:05;100257.06;;;12.27;100.00
78685;BME280;68002;52.310;6.990;2023-11-19T02:48:30;100254.22;;;12.28;100.00
78685;BME280;68002;52.310;6.990;2023-11-19T02:50:55;100252.88;;;12.32;100.00
78685;BME280;68002;52.310;6.990;2023-11-19T02:53:20;100253.38;;;12.36;100.00
78685;BME280;68002;52.310;6.990;2023-11-19T02:55:45;100249.84;;;12.35;100.00
78685;BME280;68002;52.310;6.990;2023-11-19T02:58:10;100255.06;;;12.37;100.00
78685;BME280;68002;52.310;6.990;2023-11-19T03:00:36;100255.56;;;12.40;100.00
78685;BME280;68002;52.310;6.990;2023-11-19T03:03:01;100258.91;;;12.42;100.00
78685;BME280;68002;52.310;6.990;2023-11-19T03:05:26;100254.75;;;12.40;100.00
78685;BME280;68002;52.310;6.990;2023-11-19T03:07:51;100246.69;;;12.40;100.00
78685;BME280;68002;52.310;6.990;2023-11-19T03:10:17;100248.34;;;12.41;100.00
78685;BME280;68002;52.310;6.990;2023-11-19T03:12:43;100256.56;;;12.39;100.00
78685;BME280;68002;52.310;6.990;2023-11-19T03:15:08;100251.88;;;12.33;100.00
78685;BME280;68002;52.310;6.990;2023-11-19T03:17:33;100249.38;;;12.40;100.00
78685;BME280;68002;52.310;6.990;2023-11-19T03:19:59;100250.03;;;12.42;100.00
78685;BME280;68002;52.310;6.990;2023-11-19T03:22:24;100250.19;;;12.40;100.00
78685;BME280;68002;52.310;6.990;2023-11-19T03:24:50;100239.28;;;12.42;100.00
78685;BME280;68002;52.310;6.990;2023-11-19T03:27:15;100245.69;;;12.41;100.00
78685;BME280;68002;52.310;6.990;2023-11-19T03:29:41;100240.66;;;12.38;100.00
78685;BME280;68002;52.310;6.990;2023-11-19T03:32:06;100244.66;;;12.34;100.00
78685;BME280;68002;52.310;6.990;2023-11-19T03:34:31;100247.66;;;12.31;100.00
78685;BME280;68002;52.310;6.990;2023-11-19T03:36:56;100240.97;;;12.27;100.00
78685;BME280;68002;52.310;6.990;2023-11-19T03:39:21;100248.50;;;12.23;100.00
78685;BME280;68002;52.310;6.990;2023-11-19T03:41:46;100249.50;;;12.22;100.00
78685;BME280;68002;52.310;6.990;2023-11-19T03:44:11;100245.28;;;12.20;100.00
78685;BME280;68002;52.310;6.990;2023-11-19T03:46:36;100246.13;;;12.20;100.00
78685;BME280;68002;52.310;6.990;2023-11-19T03:49:02;100243.97;;;12.16;100.00
78685;BME280;68002;52.310;6.990;2023-11-19T03:51:27;100248.13;;;12.18;100.00
78685;BME280;68002;52.310;6.990;2023-11-19T03:53:52;100244.13;;;12.14;100.00
78685;BME280;68002;52.310;6.990;2023-11-19T03:56:17;100249.63;;;12.12;100.00
78685;BME280;68002;52.310;6.990;2023-11-19T03:58:42;100252.66;;;12.09;100.00
78685;BME280;68002;52.310;6.990;2023-11-19T04:01:10;100256.16;;;12.10;100.00
78685;BME280;68002;52.310;6.990;2023-11-19T04:03:36;100251.31;;;12.13;100.00
78685;BME280;68002;52.310;6.990;2023-11-19T04:06:01;100257.69;;;12.21;100.00
78685;BME280;68002;52.310;6.990;2023-11-19T04:08:26;100250.34;;;12.23;100.00
78685;BME280;68002;52.310;6.990;2023-11-19T04:10:51;100242.97;;;12.25;100.00
78685;BME280;68002;52.310;6.990;2023-11-19T04:13:16;100244.28;;;12.21;100.00
78685;BME280;68002;52.310;6.990;2023-11-19T04:15:41;100234.25;;;12.23;100.00
78685;BME280;68002;52.310;6.990;2023-11-19T04:18:06;100234.25;;;12.23;100.00
78685;BME280;68002;52.310;6.990;2023-11-19T04:20:31;100242.97;;;12.25;100.00
78685;BME280;68002;52.310;6.990;2023-11-19T04:22:57;100230.22;;;12.19;100.00
78685;BME280;68002;52.310;6.990;2023-11-19T04:25:22;100230.19;;;12.10;100.00
78685;BME280;68002;52.310;6.990;2023-11-19T04:27:47;100229.50;;;12.00;100.00
78685;BME280;68002;52.310;6.990;2023-11-19T04:30:13;100224.47;;;11.97;100.00
78685;BME280;68002;52.310;6.990;2023-11-19T04:32:38;100229.78;;;11.89;100.00
78685;BME280;68002;52.310;6.990;2023-11-19T04:35:03;100222.78;;;11.96;100.00
78685;BME280;68002;52.310;6.990;2023-11-19T04:37:28;100237.84;;;11.89;100.00
78685;BME280;68002;52.310;6.990;2023-11-19T04:39:53;100237.97;;;11.80;100.00
78685;BME280;68002;52.310;6.990;2023-11-19T04:42:18;100243.47;;;11.78;100.00
78685;BME280;68002;52.310;6.990;2023-11-19T04:44:44;100237.78;;;11.73;100.00
78685;BME280;68002;52.310;6.990;2023-11-19T04:47:09;100238.25;;;11.69;100.00
78685;BME280;68002;52.310;6.990;2023-11-19T04:49:34;100236.59;;;11.68;100.00
78685;BME280;68002;52.310;6.990;2023-11-19T04:51:59;100240.53;;;11.64;100.00
78685;BME280;68002;52.310;6.990;2023-11-19T04:54:24;100239.19;;;11.60;100.00
78685;BME280;68002;52.310;6.990;2023-11-19T04:56:49;100244.00;;;11.56;100.00
78685;BME280;68002;52.310;6.990;2023-11-19T04:59:14;100241.66;;;11.53;100.00
78685;BME280;68002;52.310;6.990;2023-11-19T05:01:39;100250.00;;;11.50;100.00
78685;BME280;68002;52.310;6.990;2023-11-19T05:04:04;100266.41;;;11.47;100.00
78685;BME280;68002;52.310;6.990;2023-11-19T05:06:30;100240.78;;;11.45;100.00
78685;BME280;68002;52.310;6.990;2023-11-19T05:08:56;100251.34;;;11.46;100.00
78685;BME280;68002;52.310;6.990;2023-11-19T05:11:21;100246.13;;;11.45;100.00
78685;BME280;68002;52.310;6.990;2023-11-19T05:13:46;100243.94;;;11.40;100.00
78685;BME280;68002;52.310;6.990;2023-11-19T05:16:12;100242.94;;;11.41;100.00
78685;BME280;68002;52.310;6.990;2023-11-19T05:18:37;100255.00;;;11.45;100.00
78685;BME280;68002;52.310;6.990;2023-11-19T05:21:02;100251.66;;;11.43;100.00
78685;BME280;68002;52.310;6.990;2023-11-19T05:23:27;100250.00;;;11.50;100.00
78685;BME280;68002;52.310;6.990;2023-11-19T05:25:52;100242.81;;;11.51;100.00
78685;BME280;68002;52.310;6.990;2023-11-19T05:28:17;100259.94;;;11.58;100.00
78685;BME280;68002;52.310;6.990;2023-11-19T05:30:42;100256.72;;;11.54;100.00
78685;BME280;68002;52.310;6.990;2023-11-19T05:33:08;100250.22;;;11.57;100.00
78685;BME280;68002;52.310;6.990;2023-11-19T05:35:34;100258.78;;;11.60;100.00
78685;BME280;68002;52.310;6.990;2023-11-19T05:37:59;100263.81;;;11.63;100.00
78685;BME280;68002;52.310;6.990;2023-11-19T05:40:24;100255.78;;;11.63;100.00
78685;BME280;68002;52.310;6.990;2023-11-19T05:42:49;100255.41;;;11.58;100.00
78685;BME280;68002;52.310;6.990;2023-11-19T05:45:14;100254.56;;;11.58;100.00
78685;BME280;68002;52.310;6.990;2023-11-19T05:47:39;100258.44;;;11.55;100.00
78685;BME280;68002;52.310;6.990;2023-11-19T05:50:04;100258.94;;;11.59;100.00
78685;BME280;68002;52.310;6.990;2023-11-19T05:52:30;100266.97;;;11.59;100.00
78685;BME280;68002;52.310;6.990;2023-11-19T05:54:55;100276.84;;;11.58;100.00
78685;BME280;68002;52.310;6.990;2023-11-19T05:57:20;100255.75;;;11.55;100.00
78685;BME280;68002;52.310;6.990;2023-11-19T05:59:45;100278.16;;;11.54;100.00
78685;BME280;68002;52.310;6.990;2023-11-19T06:02:10;100284.34;;;11.55;100.00
78685;BME280;68002;52.310;6.990;2023-11-19T06:04:35;100275.19;;;11.57;100.00
78685;BME280;68002;52.310;6.990;2023-11-19T06:07:00;100271.66;;;11.57;100.00
78685;BME280;68002;52.310;6.990;2023-11-19T06:09:25;100271.13;;;11.53;100.00
78685;BME280;68002;52.310;6.990;2023-11-19T06:11:51;100272.50;;;11.57;100.00
78685;BME280;68002;52.310;6.990;2023-11-19T06:14:16;100283.50;;;11.54;100.00
78685;BME280;68002;52.310;6.990;2023-11-19T06:16:41;100290.41;;;11.57;100.00
78685;BME280;68002;52.310;6.990;2023-11-19T06:19:06;100279.16;;;11.53;100.00
78685;BME280;68002;52.310;6.990;2023-11-19T06:21:31;100283.22;;;11.57;100.00
78685;BME280;68002;52.310;6.990;2023-11-19T06:23:56;100281.69;;;11.55;100.00
78685;BME280;68002;52.310;6.990;2023-11-19T06:26:21;100287.66;;;11.49;100.00
78685;BME280;68002;52.310;6.990;2023-11-19T06:28:47;100286.19;;;11.54;100.00
78685;BME280;68002;52.310;6.990;2023-11-19T06:31:12;100282.00;;;11.52;100.00
78685;BME280;68002;52.310;6.990;2023-11-19T06:33:37;100286.88;;;11.56;100.00
78685;BME280;68002;52.310;6.990;2023-11-19T06:36:02;100283.56;;;11.62;100.00
78685;BME280;68002;52.310;6.990;2023-11-19T06:38:27;100285.91;;;11.57;100.00
78685;BME280;68002;52.310;6.990;2023-11-19T06:40:52;100281.69;;;11.55;100.00
78685;BME280;68002;52.310;6.990;2023-11-19T06:43:17;100290.84;;;11.44;100.00
78685;BME280;68002;52.310;6.990;2023-11-19T06:45:43;100278.47;;;11.51;100.00
78685;BME280;68002;52.310;6.990;2023-11-19T06:48:08;100286.47;;;11.43;100.00
78685;BME280;68002;52.310;6.990;2023-11-19T06:50:33;100278.91;;;11.39;100.00
78685;BME280;68002;52.310;6.990;2023-11-19T06:52:58;100294.13;;;11.38;100.00
78685;BME280;68002;52.310;6.990;2023-11-19T06:55:23;100281.88;;;11.36;100.00
78685;BME280;68002;52.310;6.990;2023-11-19T06:57:48;100285.41;;;11.36;100.00
78685;BME280;68002;52.310;6.990;2023-11-19T07:00:13;100276.25;;;11.39;100.00
78685;BME280;68002;52.310;6.990;2023-11-19T07:02:38;100286.72;;;11.32;100.00
78685;BME280;68002;52.310;6.990;2023-11-19T07:05:04;100294.91;;;11.31;100.00
78685;BME280;68002;52.310;6.990;2023-11-19T07:07:29;100299.41;;;11.30;100.00
78685;BME280;68002;52.310;6.990;2023-11-19T07:09:55;100300.44;;;11.29;100.00
78685;BME280;68002;52.310;6.990;2023-11-19T07:12:20;100296.75;;;11.30;100.00
78685;BME280;68002;52.310;6.990;2023-11-19T07:14:45;100296.22;;;11.27;100.00
78685;BME280;68002;52.310;6.990;2023-11-19T07:17:10;100299.28;;;11.32;100.00
78685;BME280;68002;52.310;6.990;2023-11-19T07:19:35;100290.41;;;11.31;100.00
78685;BME280;68002;52.310;6.990;2023-11-19T07:22:00;100302.31;;;11.37;100.00
78685;BME280;68002;52.310;6.990;2023-11-19T07:24:26;100299.50;;;11.38;100.00
78685;BME280;68002;52.310;6.990;2023-11-19T07:26:51;100303.31;;;11.36;100.00
78685;BME280;68002;52.310;6.990;2023-11-19T07:29:16;100305.97;;;11.36;100.00
78685;BME280;68002;52.310;6.990;2023-11-19T07:31:41;100306.84;;;11.36;100.00
78685;BME280;68002;52.310;6.990;2023-11-19T07:34:06;100310.88;;;11.40;100.00
78685;BME280;68002;52.310;6.990;2023-11-19T07:36:32;100314.53;;;11.39;100.00
78685;BME280;68002;52.310;6.990;2023-11-19T07:38:57;100320.06;;;11.38;100.00
78685;BME280;68002;52.310;6.990;2023-11-19T07:41:23;100317.22;;;11.39;100.00
78685;BME280;68002;52.310;6.990;2023-11-19T07:43:48;100322.28;;;11.42;100.00
78685;BME280;68002;52.310;6.990;2023-11-19T07:46:13;100326.63;;;11.43;100.00
78685;BME280;68002;52.310;6.990;2023-11-19T07:48:39;100321.28;;;11.43;100.00
78685;BME280;68002;52.310;6.990;2023-11-19T07:51:04;100330.00;;;11.45;100.00
78685;BME280;68002;52.310;6.990;2023-11-19T07:53:29;100320.81;;;11.48;100.00
78685;BME280;68002;52.310;6.990;2023-11-19T07:55:54;100331.38;;;11.49;100.00
78685;BME280;68002;52.310;6.990;2023-11-19T07:58:19;100330.34;;;11.50;100.00
78685;BME280;68002;52.310;6.990;2023-11-19T08:00:44;100348.13;;;11.51;100.00
78685;BME280;68002;52.310;6.990;2023-11-19T08:03:09;100353.66;;;11.50;100.00
78685;BME280;68002;52.310;6.990;2023-11-19T08:05:35;100339.75;;;11.54;100.00
78685;BME280;68002;52.310;6.990;2023-11-19T08:08:00;100353.38;;;11.61;100.00
78685;BME280;68002;52.310;6.990;2023-11-19T08:10:25;100368.94;;;11.57;100.00
78685;BME280;68002;52.310;6.990;2023-11-19T08:12:51;100350.09;;;11.67;100.00
78685;BME280;68002;52.310;6.990;2023-11-19T08:15:16;100352.22;;;11.63;100.00
78685;BME280;68002;52.310;6.990;2023-11-19T08:17:41;100354.06;;;11.63;100.00
78685;BME280;68002;52.310;6.990;2023-11-19T08:20:06;100352.38;;;11.62;100.00
78685;BME280;68002;52.310;6.990;2023-11-19T08:22:32;100358.28;;;11.65;100.00
78685;BME280;68002;52.310;6.990;2023-11-19T08:24:57;100366.63;;;11.62;100.00
78685;BME280;68002;52.310;6.990;2023-11-19T08:27:22;100357.44;;;11.65;100.00
78685;BME280;68002;52.310;6.990;2023-11-19T08:29:47;100363.31;;;11.68;100.00
78685;BME280;68002;52.310;6.990;2023-11-19T08:32:12;100363.03;;;11.71;100.00
78685;BME280;68002;52.310;6.990;2023-11-19T08:34:37;100364.53;;;11.74;100.00
78685;BME280;68002;52.310;6.990;2023-11-19T08:37:03;100357.34;;;11.74;100.00
78685;BME280;68002;52.310;6.990;2023-11-19T08:39:28;100364.91;;;11.79;100.00
78685;BME280;68002;52.310;6.990;2023-11-19T08:41:53;100369.25;;;11.80;100.00
78685;BME280;68002;52.310;6.990;2023-11-19T08:44:18;100359.06;;;11.83;99.50
78685;BME280;68002;52.310;6.990;2023-11-19T08:46:47;100360.25;;;11.89;99.43
78685;BME280;68002;52.310;6.990;2023-11-19T08:49:12;100366.31;;;11.91;99.69
78685;BME280;68002;52.310;6.990;2023-11-19T08:51:37;100365.34;;;11.92;100.00
78685;BME280;68002;52.310;6.990;2023-11-19T08:54:02;100361.63;;;11.93;99.19
78685;BME280;68002;52.310;6.990;2023-11-19T08:56:28;100349.09;;;12.01;98.68
78685;BME280;68002;52.310;6.990;2023-11-19T08:58:53;100354.16;;;12.04;96.86
78685;BME280;68002;52.310;6.990;2023-11-19T09:01:18;100371.81;;;12.15;97.15
78685;BME280;68002;52.310;6.990;2023-11-19T09:03:43;100358.44;;;12.23;96.05
78685;BME280;68002;52.310;6.990;2023-11-19T09:06:08;100361.47;;;12.28;95.79
78685;BME280;68002;52.310;6.990;2023-11-19T09:08:33;100358.28;;;12.33;96.53
78685;BME280;68002;52.310;6.990;2023-11-19T09:10:58;100351.31;;;12.40;96.89
78685;BME280;68002;52.310;6.990;2023-11-19T09:13:24;100361.69;;;12.43;95.85
78685;BME280;68002;52.310;6.990;2023-11-19T09:15:49;100359.88;;;12.43;94.58
78685;BME280;68002;52.310;6.990;2023-11-19T09:18:14;100364.22;;;12.44;94.54
78685;BME280;68002;52.310;6.990;2023-11-19T09:20:39;100355.31;;;12.44;94.02
78685;BME280;68002;52.310;6.990;2023-11-19T09:23:05;100356.97;;;12.37;94.46
78685;BME280;68002;52.310;6.990;2023-11-19T09:25:30;100368.38;;;12.39;95.71
78685;BME280;68002;52.310;6.990;2023-11-19T09:27:55;100373.91;;;12.37;95.65
78685;BME280;68002;52.310;6.990;2023-11-19T09:30:20;100364.84;;;12.38;94.99
78685;BME280;68002;52.310;6.990;2023-11-19T09:32:45;100360.00;;;12.34;95.50
78685;BME280;68002;52.310;6.990;2023-11-19T09:35:10;100354.63;;;12.34;95.33
78685;BME280;68002;52.310;6.990;2023-11-19T09:37:36;100370.03;;;12.32;95.64
78685;BME280;68002;52.310;6.990;2023-11-19T09:40:01;100370.19;;;12.30;96.14
78685;BME280;68002;52.310;6.990;2023-11-19T09:42:28;100363.66;;;12.25;95.86
78685;BME280;68002;52.310;6.990;2023-11-19T09:44:53;100374.19;;;12.26;96.97
78685;BME280;68002;52.310;6.990;2023-11-19T09:47:20;100374.03;;;12.28;96.84
78685;BME280;68002;52.310;6.990;2023-11-19T09:49:46;100375.06;;;12.27;96.64
78685;BME280;68002;52.310;6.990;2023-11-19T09:52:11;100356.75;;;12.22;96.48
78685;BME280;68002;52.310;6.990;2023-11-19T09:54:36;100379.22;;;12.21;96.47
78685;BME280;68002;52.310;6.990;2023-11-19T09:57:01;100377.34;;;12.22;95.74
78685;BME280;68002;52.310;6.990;2023-11-19T09:59:27;100365.81;;;12.21;96.60
78685;BME280;68002;52.310;6.990;2023-11-19T10:01:52;100362.28;;;12.21;96.58
78685;BME280;68002;52.310;6.990;2023-11-19T10:04:17;100372.66;;;12.24;96.98
78685;BME280;68002;52.310;6.990;2023-11-19T10:06:44;100372.50;;;12.25;96.86
78685;BME280;68002;52.310;6.990;2023-11-19T10:09:09;100360.28;;;12.31;95.51
78685;BME280;68002;52.310;6.990;2023-11-19T10:11:34;100364.34;;;12.35;96.42
78685;BME280;68002;52.310;6.990;2023-11-19T10:13:59;100363.53;;;12.34;95.76
78685;BME280;68002;52.310;6.990;2023-11-19T10:16:28;100367.69;;;12.37;95.00
78685;BME280;68002;52.310;6.990;2023-11-19T10:18:53;100351.59;;;12.37;94.18
78685;BME280;68002;52.310;6.990;2023-11-19T10:21:20;100358.47;;;12.31;94.70
78685;BME280;68002;52.310;6.990;2023-11-19T10:26:13;100357.59;;;12.23;95.88
78685;BME280;68002;52.310;6.990;2023-11-19T10:28:39;100354.13;;;12.30;95.35
78685;BME280;68002;52.310;6.990;2023-11-19T10:31:04;100351.44;;;12.30;95.76
78685;BME280;68002;52.310;6.990;2023-11-19T10:33:29;100364.16;;;12.36;95.35
78685;BME280;68002;52.310;6.990;2023-11-19T10:35:56;100359.66;;;12.37;95.12
78685;BME280;68002;52.310;6.990;2023-11-19T10:38:22;100351.13;;;12.41;94.90
78685;BME280;68002;52.310;6.990;2023-11-19T10:40:47;100354.50;;;12.43;93.75
78685;BME280;68002;52.310;6.990;2023-11-19T10:43:13;100353.00;;;12.49;93.53
78685;BME280;68002;52.310;6.990;2023-11-19T10:45:38;100348.44;;;12.41;93.35
78685;BME280;68002;52.310;6.990;2023-11-19T10:48:03;100351.31;;;12.48;93.71
78685;BME280;68002;52.310;6.990;2023-11-19T10:50:29;100342.94;;;12.51;93.32
78685;BME280;68002;52.310;6.990;2023-11-19T10:52:57;100349.81;;;12.53;93.67
78685;BME280;68002;52.310;6.990;2023-11-19T10:55:23;100353.34;;;12.62;92.16
78685;BME280;68002;52.310;6.990;2023-11-19T10:57:51;100340.28;;;12.59;92.62
78685;BME280;68002;52.310;6.990;2023-11-19T11:00:17;100340.28;;;12.59;92.44
78685;BME280;68002;52.310;6.990;2023-11-19T11:02:44;100338.91;;;12.55;91.79
78685;BME280;68002;52.310;6.990;2023-11-19T11:05:10;100346.50;;;12.59;92.69
78685;BME280;68002;52.310;6.990;2023-11-19T11:07:37;100348.31;;;12.59;93.29
78685;BME280;68002;52.310;6.990;2023-11-19T11:10:04;100343.63;;;12.61;92.59
78685;BME280;68002;52.310;6.990;2023-11-19T11:12:30;100347.34;;;12.60;92.35
78685;BME280;68002;52.310;6.990;2023-11-19T11:14:56;100343.16;;;12.65;92.33
78685;BME280;68002;52.310;6.990;2023-11-19T11:17:21;100339.63;;;12.65;92.41
78685;BME280;68002;52.310;6.990;2023-11-19T11:19:49;100345.00;;;12.73;91.51
78685;BME280;68002;52.310;6.990;2023-11-19T11:22:14;100334.44;;;12.71;91.66
78685;BME280;68002;52.310;6.990;2023-11-19T11:24:45;100340.66;;;12.72;91.79
78685;BME280;68002;52.310;6.990;2023-11-19T11:37:36;100337.44;;;12.68;91.14
78685;BME280;68002;52.310;6.990;2023-11-19T11:40:02;100335.94;;;12.66;92.13
78685;BME280;68002;52.310;6.990;2023-11-19T11:42:33;100330.91;;;12.63;93.02
78685;BME280;68002;52.310;6.990;2023-11-19T11:47:24;100317.81;;;12.60;92.07
78685;BME280;68002;52.310;6.990;2023-11-19T11:49:49;100320.66;;;12.58;92.16
78685;BME280;68002;52.310;6.990;2023-11-19T11:52:15;100324.19;;;12.59;92.20
78685;BME280;68002;52.310;6.990;2023-11-19T11:54:40;100326.00;;;12.58;92.39
78685;BME280;68002;52.310;6.990;2023-11-19T11:57:12;100312.97;;;12.63;91.24
78685;BME280;68002;52.310;6.990;2023-11-19T12:02:03;100323.19;;;12.68;90.41
78685;BME280;68002;52.310;6.990;2023-11-19T12:04:28;100305.06;;;12.70;90.22
78685;BME280;68002;52.310;6.990;2023-11-19T12:09:49;100302.41;;;12.70;90.82
78685;BME280;68002;52.310;6.990;2023-11-19T12:20:02;100295.34;;;12.61;91.25
78685;BME280;68002;52.310;6.990;2023-11-19T12:22:27;100291.13;;;12.50;92.40
78685;BME280;68002;52.310;6.990;2023-11-19T12:24:55;100295.50;;;12.43;93.66
78685;BME280;68002;52.310;6.990;2023-11-19T12:27:21;100288.25;;;12.36;95.77
78685;BME280;68002;52.310;6.990;2023-11-19T12:29:46;100286.94;;;12.40;95.00
78685;BME280;68002;52.310;6.990;2023-11-19T12:32:11;100280.53;;;12.41;96.52
78685;BME280;68002;52.310;6.990;2023-11-19T12:34:36;100285.09;;;12.48;95.37
78685;BME280;68002;52.310;6.990;2023-11-19T12:37:03;100281.59;;;12.56;94.21
78685;BME280;68002;52.310;6.990;2023-11-19T12:39:31;100284.44;;;12.54;92.96
78685;BME280;68002;52.310;6.990;2023-11-19T12:41:57;100283.91;;;12.51;93.93
78685;BME280;68002;52.310;6.990;2023-11-19T12:44:22;100275.69;;;12.44;93.61
78685;BME280;68002;52.310;6.990;2023-11-19T12:46:58;100283.56;;;12.38;93.90
78685;BME280;68002;52.310;6.990;2023-11-19T12:49:23;100270.16;;;12.38;94.52
78685;BME280;68002;52.310;6.990;2023-11-19T12:51:48;100260.44;;;12.45;95.28
78685;BME280;68002;52.310;6.990;2023-11-19T12:54:14;100253.91;;;12.55;97.67
78685;BME280;68002;52.310;6.990;2023-11-19T12:56:39;100272.03;;;12.61;95.30
78685;BME280;68002;52.310;6.990;2023-11-19T12:59:10;100285.44;;;12.69;91.63
78685;BME280;68002;52.310;6.990;2023-11-19T13:01:35;100292.69;;;12.69;92.96
78685;BME280;68002;52.310;6.990;2023-11-19T13:04:01;100294.19;;;12.63;94.24